sensor_id;sensor_type;location;lat;lon;timestamp;P1;durP1;ratioP1;P2;durP2;ratioP2
67712;SDS011;54503;55.784;49.138;2022-11-12T00:00:12;13.95;;;5.80;;
67712;SDS011;54503;55.784;49.138;2022-11-12T00:05:18;17.10;;;6.90;;
67712;SDS011;54503;55.784;49.138;2022-11-12T00:10:23;16.50;;;6.40;;
67712;SDS011;54503;55.784;49.138;2022-11-12T00:15:43;19.65;;;6.40;;
67712;SDS011;54503;55.784;49.138;2022-11-12T00:20:50;17.23;;;6.60;;
67712;SDS011;54503;55.784;49.138;2022-11-12T00:31:20;16.43;;;5.90;;
67712;SDS011;54503;55.784;49.138;2022-11-12T00:36:26;16.20;;;5.95;;
67712;SDS011;54503;55.784;49.138;2022-11-12T00:41:40;16.67;;;5.97;;
67712;SDS011;54503;55.784;49.138;2022-11-12T00:46:59;13.83;;;5.80;;
67712;SDS011;54503;55.784;49.138;2022-11-12T00:52:04;16.45;;;6.28;;
67712;SDS011;54503;55.784;49.138;2022-11-12T00:57:10;16.80;;;4.93;;
67712;SDS011;54503;55.784;49.138;2022-11-12T01:02:15;15.20;;;5.25;;
67712;SDS011;54503;55.784;49.138;2022-11-12T01:07:21;15.93;;;5.03;;
67712;SDS011;54503;55.784;49.138;2022-11-12T01:12:41;12.93;;;4.83;;
67712;SDS011;54503;55.784;49.138;2022-11-12T01:17:46;13.35;;;5.35;;
67712;SDS011;54503;55.784;49.138;2022-11-12T01:22:52;16.52;;;5.60;;
67712;SDS011;54503;55.784;49.138;2022-11-12T01:28:11;14.70;;;5.30;;
67712;SDS011;54503;55.784;49.138;2022-11-12T01:33:30;15.08;;;5.40;;
67712;SDS011;54503;55.784;49.138;2022-11-12T01:38:49;17.97;;;6.13;;
67712;SDS011;54503;55.784;49.138;2022-11-12T02:00:24;15.23;;;5.60;;
67712;SDS011;54503;55.784;49.138;2022-11-12T02:05:30;13.72;;;5.12;;
67712;SDS011;54503;55.784;49.138;2022-11-12T02:10:49;16.03;;;5.63;;
67712;SDS011;54503;55.784;49.138;2022-11-12T02:16:09;13.68;;;5.00;;
67712;SDS011;54503;55.784;49.138;2022-11-12T02:21:28;14.45;;;5.55;;
67712;SDS011;54503;55.784;49.138;2022-11-12T02:26:35;15.53;;;5.33;;
67712;SDS011;54503;55.784;49.138;2022-11-12T02:31:41;14.65;;;5.08;;
67712;SDS011;54503;55.784;49.138;2022-11-12T02:36:46;16.00;;;5.90;;
67712;SDS011;54503;55.784;49.138;2022-11-12T02:41:52;18.90;;;6.33;;
67712;SDS011;54503;55.784;49.138;2022-11-12T02:47:06;17.67;;;5.85;;
67712;SDS011;54503;55.784;49.138;2022-11-12T02:52:25;19.55;;;5.85;;
67712;SDS011;54503;55.784;49.138;2022-11-12T02:57:31;17.10;;;5.75;;
67712;SDS011;54503;55.784;49.138;2022-11-12T03:02:37;14.20;;;5.63;;
67712;SDS011;54503;55.784;49.138;2022-11-12T03:07:42;18.75;;;6.62;;
67712;SDS011;54503;55.784;49.138;2022-11-12T03:12:47;19.80;;;6.37;;
67712;SDS011;54503;55.784;49.138;2022-11-12T03:17:57;21.30;;;7.10;;
67712;SDS011;54503;55.784;49.138;2022-11-12T03:23:16;19.60;;;6.45;;
67712;SDS011;54503;55.784;49.138;2022-11-12T03:28:22;18.40;;;7.27;;
67712;SDS011;54503;55.784;49.138;2022-11-12T03:33:28;19.55;;;7.10;;
67712;SDS011;54503;55.784;49.138;2022-11-12T03:38:33;23.18;;;7.10;;
67712;SDS011;54503;55.784;49.138;2022-11-12T03:43:39;20.02;;;6.80;;
67712;SDS011;54503;55.784;49.138;2022-11-12T03:48:54;21.15;;;6.97;;
67712;SDS011;54503;55.784;49.138;2022-11-12T03:54:00;20.07;;;6.57;;
67712;SDS011;54503;55.784;49.138;2022-11-12T03:59:19;20.75;;;6.67;;
67712;SDS011;54503;55.784;49.138;2022-11-12T04:04:25;20.08;;;7.08;;
67712;SDS011;54503;55.784;49.138;2022-11-12T04:09:30;17.80;;;7.22;;
67712;SDS011;54503;55.784;49.138;2022-11-12T04:14:35;21.95;;;6.33;;
67712;SDS011;54503;55.784;49.138;2022-11-12T04:19:40;18.23;;;5.50;;
67712;SDS011;54503;55.784;49.138;2022-11-12T04:25:05;15.55;;;5.28;;
67712;SDS011;54503;55.784;49.138;2022-11-12T04:30:30;19.73;;;6.10;;
67712;SDS011;54503;55.784;49.138;2022-11-12T04:35:36;15.18;;;5.33;;
67712;SDS011;54503;55.784;49.138;2022-11-12T04:40:41;15.72;;;6.12;;
67712;SDS011;54503;55.784;49.138;2022-11-12T04:46:05;17.13;;;5.83;;
67712;SDS011;54503;55.784;49.138;2022-11-12T04:51:11;15.75;;;5.62;;
67712;SDS011;54503;55.784;49.138;2022-11-12T04:56:30;24.00;;;5.90;;
67712;SDS011;54503;55.784;49.138;2022-11-12T05:01:35;18.87;;;5.85;;
67712;SDS011;54503;55.784;49.138;2022-11-12T05:06:41;15.58;;;5.20;;
67712;SDS011;54503;55.784;49.138;2022-11-12T05:12:06;19.10;;;6.13;;
67712;SDS011;54503;55.784;49.138;2022-11-12T05:17:12;20.60;;;5.70;;
67712;SDS011;54503;55.784;49.138;2022-11-12T05:22:17;19.00;;;6.00;;
67712;SDS011;54503;55.784;49.138;2022-11-12T05:27:36;17.30;;;4.70;;
67712;SDS011;54503;55.784;49.138;2022-11-12T05:32:41;18.70;;;5.70;;
67712;SDS011;54503;55.784;49.138;2022-11-12T05:37:46;16.15;;;5.60;;
67712;SDS011;54503;55.784;49.138;2022-11-12T05:43:05;16.17;;;5.87;;
67712;SDS011;54503;55.784;49.138;2022-11-12T05:48:24;18.87;;;5.58;;
67712;SDS011;54503;55.784;49.138;2022-11-12T05:53:43;14.13;;;5.50;;
67712;SDS011;54503;55.784;49.138;2022-11-12T05:58:49;16.73;;;5.87;;
67712;SDS011;54503;55.784;49.138;2022-11-12T06:03:54;15.08;;;4.60;;
67712;SDS011;54503;55.784;49.138;2022-11-12T06:08:59;14.83;;;4.83;;
67712;SDS011;54503;55.784;49.138;2022-11-12T06:14:05;14.23;;;5.05;;
67712;SDS011;54503;55.784;49.138;2022-11-12T06:19:24;12.57;;;4.53;;
67712;SDS011;54503;55.784;49.138;2022-11-12T06:24:30;10.78;;;3.75;;
67712;SDS011;54503;55.784;49.138;2022-11-12T06:29:35;15.18;;;4.37;;
67712;SDS011;54503;55.784;49.138;2022-11-12T06:34:40;13.47;;;4.77;;
67712;SDS011;54503;55.784;49.138;2022-11-12T06:39:45;14.10;;;4.03;;
67712;SDS011;54503;55.784;49.138;2022-11-12T06:45:04;14.47;;;3.90;;
67712;SDS011;54503;55.784;49.138;2022-11-12T06:50:09;11.48;;;3.87;;
67712;SDS011;54503;55.784;49.138;2022-11-12T06:55:15;11.43;;;3.70;;
67712;SDS011;54503;55.784;49.138;2022-11-12T07:00:20;11.40;;;3.47;;
67712;SDS011;54503;55.784;49.138;2022-11-12T07:05:26;8.88;;;3.20;;
67712;SDS011;54503;55.784;49.138;2022-11-12T07:10:45;9.43;;;2.90;;
67712;SDS011;54503;55.784;49.138;2022-11-12T07:15:51;9.88;;;3.05;;
67712;SDS011;54503;55.784;49.138;2022-11-12T07:26:21;9.83;;;3.00;;
67712;SDS011;54503;55.784;49.138;2022-11-12T07:31:27;8.20;;;2.72;;
67712;SDS011;54503;55.784;49.138;2022-11-12T07:36:46;8.10;;;3.07;;
67712;SDS011;54503;55.784;49.138;2022-11-12T07:41:51;10.50;;;2.90;;
67712;SDS011;54503;55.784;49.138;2022-11-12T07:46:57;8.68;;;3.62;;
67712;SDS011;54503;55.784;49.138;2022-11-12T07:52:03;8.27;;;3.43;;
67712;SDS011;54503;55.784;49.138;2022-11-12T07:57:08;7.03;;;2.45;;
67712;SDS011;54503;55.784;49.138;2022-11-12T08:02:14;6.43;;;2.70;;
67712;SDS011;54503;55.784;49.138;2022-11-12T08:07:33;7.58;;;2.42;;
67712;SDS011;54503;55.784;49.138;2022-11-12T08:12:38;8.23;;;2.92;;
67712;SDS011;54503;55.784;49.138;2022-11-12T08:17:44;7.40;;;2.30;;
67712;SDS011;54503;55.784;49.138;2022-11-12T08:22:49;7.37;;;2.37;;
67712;SDS011;54503;55.784;49.138;2022-11-12T08:27:55;6.03;;;2.00;;
67712;SDS011;54503;55.784;49.138;2022-11-12T08:33:02;4.62;;;1.52;;
67712;SDS011;54503;55.784;49.138;2022-11-12T08:38:07;5.90;;;1.98;;
67712;SDS011;54503;55.784;49.138;2022-11-12T08:43:26;4.37;;;1.73;;
67712;SDS011;54503;55.784;49.138;2022-11-12T08:48:32;4.25;;;1.50;;
67712;SDS011;54503;55.784;49.138;2022-11-12T08:53:38;6.23;;;2.10;;
67712;SDS011;54503;55.784;49.138;2022-11-12T08:58:44;5.25;;;1.55;;
67712;SDS011;54503;55.784;49.138;2022-11-12T09:03:50;6.20;;;1.67;;
67712;SDS011;54503;55.784;49.138;2022-11-12T09:08:55;8.97;;;1.80;;
67712;SDS011;54503;55.784;49.138;2022-11-12T09:14:14;6.67;;;2.15;;
67712;SDS011;54503;55.784;49.138;2022-11-12T09:19:19;7.30;;;2.77;;
67712;SDS011;54503;55.784;49.138;2022-11-12T09:24:24;6.08;;;2.00;;
67712;SDS011;54503;55.784;49.138;2022-11-12T09:29:29;3.95;;;1.50;;
67712;SDS011;54503;55.784;49.138;2022-11-12T09:34:48;4.73;;;1.90;;
67712;SDS011;54503;55.784;49.138;2022-11-12T09:39:53;5.55;;;1.90;;
67712;SDS011;54503;55.784;49.138;2022-11-12T09:45:00;6.50;;;1.90;;
67712;SDS011;54503;55.784;49.138;2022-11-12T09:55:47;4.70;;;1.60;;
67712;SDS011;54503;55.784;49.138;2022-11-12T10:00:53;6.53;;;1.80;;
67712;SDS011;54503;55.784;49.138;2022-11-12T10:33:35;8.33;;;2.83;;
67712;SDS011;54503;55.784;49.138;2022-11-12T10:38:41;5.90;;;1.80;;
67712;SDS011;54503;55.784;49.138;2022-11-12T10:54:39;4.40;;;1.80;;
67712;SDS011;54503;55.784;49.138;2022-11-12T10:59:44;7.17;;;2.08;;
67712;SDS011;54503;55.784;49.138;2022-11-12T11:04:49;3.97;;;1.60;;
67712;SDS011;54503;55.784;49.138;2022-11-12T11:10:20;8.55;;;2.00;;
67712;SDS011;54503;55.784;49.138;2022-11-12T11:15:30;6.45;;;1.80;;
67712;SDS011;54503;55.784;49.138;2022-11-12T11:20:52;10.60;;;2.25;;
67712;SDS011;54503;55.784;49.138;2022-11-12T11:25:56;5.37;;;1.40;;
67712;SDS011;54503;55.784;49.138;2022-11-12T12:20:29;6.62;;;1.60;;
67712;SDS011;54503;55.784;49.138;2022-11-12T12:25:47;5.95;;;1.42;;
67712;SDS011;54503;55.784;49.138;2022-11-12T12:30:54;4.95;;;1.70;;
67712;SDS011;54503;55.784;49.138;2022-11-12T12:36:14;4.15;;;1.20;;
67712;SDS011;54503;55.784;49.138;2022-11-12T12:41:21;3.87;;;1.45;;
67712;SDS011;54503;55.784;49.138;2022-11-12T12:52:19;5.87;;;2.27;;
67712;SDS011;54503;55.784;49.138;2022-11-12T13:02:44;9.03;;;2.07;;
67712;SDS011;54503;55.784;49.138;2022-11-12T13:07:49;7.35;;;2.65;;
67712;SDS011;54503;55.784;49.138;2022-11-12T13:24:13;7.85;;;2.75;;
67712;SDS011;54503;55.784;49.138;2022-11-12T13:56:34;4.15;;;1.57;;
67712;SDS011;54503;55.784;49.138;2022-11-12T14:01:40;9.00;;;2.50;;
67712;SDS011;54503;55.784;49.138;2022-11-12T14:34:34;9.50;;;2.22;;
67712;SDS011;54503;55.784;49.138;2022-11-12T14:39:40;5.83;;;1.30;;
67712;SDS011;54503;55.784;49.138;2022-11-12T14:44:55;2.98;;;1.10;;
67712;SDS011;54503;55.784;49.138;2022-11-12T14:55:35;4.08;;;0.90;;
67712;SDS011;54503;55.784;49.138;2022-11-12T15:00:42;5.20;;;1.10;;
67712;SDS011;54503;55.784;49.138;2022-11-12T15:16:47;5.57;;;1.63;;
67712;SDS011;54503;55.784;49.138;2022-11-12T15:38:32;5.33;;;2.10;;
67712;SDS011;54503;55.784;49.138;2022-11-12T15:43:39;6.20;;;1.82;;
67712;SDS011;54503;55.784;49.138;2022-11-12T15:48:58;5.03;;;1.53;;
67712;SDS011;54503;55.784;49.138;2022-11-12T15:54:03;6.90;;;1.70;;
67712;SDS011;54503;55.784;49.138;2022-11-12T15:59:23;5.47;;;1.77;;
67712;SDS011;54503;55.784;49.138;2022-11-12T16:04:42;5.87;;;1.25;;
67712;SDS011;54503;55.784;49.138;2022-11-12T16:09:46;4.15;;;1.27;;
67712;SDS011;54503;55.784;49.138;2022-11-12T16:14:52;5.73;;;1.70;;
67712;SDS011;54503;55.784;49.138;2022-11-12T16:19:57;6.60;;;1.60;;
67712;SDS011;54503;55.784;49.138;2022-11-12T16:25:03;5.33;;;1.20;;
67712;SDS011;54503;55.784;49.138;2022-11-12T16:30:17;4.53;;;1.30;;
67712;SDS011;54503;55.784;49.138;2022-11-12T16:35:36;5.10;;;1.05;;
67712;SDS011;54503;55.784;49.138;2022-11-12T16:40:42;5.03;;;1.10;;
67712;SDS011;54503;55.784;49.138;2022-11-12T16:45:48;3.50;;;0.90;;
67712;SDS011;54503;55.784;49.138;2022-11-12T16:50:53;4.33;;;1.20;;
67712;SDS011;54503;55.784;49.138;2022-11-12T16:55:58;6.42;;;1.00;;
67712;SDS011;54503;55.784;49.138;2022-11-12T17:01:04;4.72;;;0.90;;
67712;SDS011;54503;55.784;49.138;2022-11-12T17:06:30;7.83;;;0.90;;
67712;SDS011;54503;55.784;49.138;2022-11-12T17:11:44;4.17;;;1.20;;
67712;SDS011;54503;55.784;49.138;2022-11-12T17:16:49;3.07;;;0.90;;
67712;SDS011;54503;55.784;49.138;2022-11-12T17:21:54;5.70;;;0.93;;
67712;SDS011;54503;55.784;49.138;2022-11-12T17:26:59;3.50;;;0.50;;
67712;SDS011;54503;55.784;49.138;2022-11-12T17:32:18;3.50;;;0.97;;
67712;SDS011;54503;55.784;49.138;2022-11-12T17:37:37;4.00;;;0.90;;
67712;SDS011;54503;55.784;49.138;2022-11-12T17:42:56;3.57;;;0.80;;
67712;SDS011;54503;55.784;49.138;2022-11-12T17:48:01;4.65;;;0.72;;
67712;SDS011;54503;55.784;49.138;2022-11-12T17:53:06;3.77;;;0.70;;
67712;SDS011;54503;55.784;49.138;2022-11-12T17:58:11;3.90;;;0.80;;
67712;SDS011;54503;55.784;49.138;2022-11-12T18:03:17;4.03;;;1.20;;
67712;SDS011;54503;55.784;49.138;2022-11-12T18:13:47;4.27;;;0.70;;
67712;SDS011;54503;55.784;49.138;2022-11-12T18:18:53;2.92;;;0.70;;
67712;SDS011;54503;55.784;49.138;2022-11-12T18:23:59;5.28;;;1.17;;
67712;SDS011;54503;55.784;49.138;2022-11-12T18:29:18;2.77;;;0.60;;
67712;SDS011;54503;55.784;49.138;2022-11-12T18:34:37;3.52;;;0.80;;
67712;SDS011;54503;55.784;49.138;2022-11-12T18:39:56;2.07;;;0.50;;
67712;SDS011;54503;55.784;49.138;2022-11-12T18:45:01;2.37;;;0.60;;
67712;SDS011;54503;55.784;49.138;2022-11-12T18:50:07;2.45;;;0.40;;
67712;SDS011;54503;55.784;49.138;2022-11-12T18:55:12;2.58;;;0.62;;
67712;SDS011;54503;55.784;49.138;2022-11-12T19:00:18;2.45;;;0.55;;
67712;SDS011;54503;55.784;49.138;2022-11-12T19:05:23;1.47;;;0.40;;
67712;SDS011;54503;55.784;49.138;2022-11-12T19:10:42;3.58;;;0.50;;
67712;SDS011;54503;55.784;49.138;2022-11-12T19:15:48;4.33;;;0.50;;
67712;SDS011;54503;55.784;49.138;2022-11-12T19:20:59;3.83;;;0.60;;
67712;SDS011;54503;55.784;49.138;2022-11-12T19:26:14;1.77;;;0.40;;
67712;SDS011;54503;55.784;49.138;2022-11-12T19:31:21;3.80;;;0.43;;
67712;SDS011;54503;55.784;49.138;2022-11-12T19:36:28;3.60;;;0.30;;
67712;SDS011;54503;55.784;49.138;2022-11-12T19:41:33;0.60;;;0.10;;
67712;SDS011;54503;55.784;49.138;2022-11-12T19:46:38;7.58;;;0.35;;
67712;SDS011;54503;55.784;49.138;2022-11-12T19:51:57;1.15;;;0.28;;
67712;SDS011;54503;55.784;49.138;2022-11-12T19:57:03;3.10;;;0.20;;
67712;SDS011;54503;55.784;49.138;2022-11-12T20:02:10;2.35;;;0.30;;
67712;SDS011;54503;55.784;49.138;2022-11-12T20:07:14;1.20;;;0.20;;
67712;SDS011;54503;55.784;49.138;2022-11-12T20:12:19;0.62;;;0.10;;
67712;SDS011;54503;55.784;49.138;2022-11-12T20:17:34;1.15;;;0.20;;
67712;SDS011;54503;55.784;49.138;2022-11-12T20:22:53;0.63;;;0.10;;
67712;SDS011;54503;55.784;49.138;2022-11-12T20:27:59;0.55;;;0.10;;
67712;SDS011;54503;55.784;49.138;2022-11-12T20:33:04;0.53;;;0.10;;
67712;SDS011;54503;55.784;49.138;2022-11-12T20:38:10;0.50;;;0.20;;
67712;SDS011;54503;55.784;49.138;2022-11-12T20:43:15;1.00;;;0.30;;
67712;SDS011;54503;55.784;49.138;2022-11-12T20:48:23;0.97;;;0.10;;
67712;SDS011;54503;55.784;49.138;2022-11-12T20:53:42;0.82;;;0.20;;
67712;SDS011;54503;55.784;49.138;2022-11-12T21:04:13;1.70;;;0.20;;
67712;SDS011;54503;55.784;49.138;2022-11-12T21:09:19;4.20;;;0.37;;
67712;SDS011;54503;55.784;49.138;2022-11-12T21:14:24;2.00;;;0.40;;
67712;SDS011;54503;55.784;49.138;2022-11-12T21:19:33;1.52;;;0.30;;
67712;SDS011;54503;55.784;49.138;2022-11-12T21:24:41;0.65;;;0.20;;
67712;SDS011;54503;55.784;49.138;2022-11-12T21:30:00;0.78;;;0.30;;
67712;SDS011;54503;55.784;49.138;2022-11-12T21:35:20;0.75;;;0.20;;
67712;SDS011;54503;55.784;49.138;2022-11-12T21:40:25;0.72;;;0.20;;
67712;SDS011;54503;55.784;49.138;2022-11-12T21:45:31;1.00;;;0.20;;
67712;SDS011;54503;55.784;49.138;2022-11-12T21:50:50;0.60;;;0.17;;
67712;SDS011;54503;55.784;49.138;2022-11-12T21:56:10;2.00;;;0.30;;
67712;SDS011;54503;55.784;49.138;2022-11-12T22:01:30;3.50;;;0.30;;
67712;SDS011;54503;55.784;49.138;2022-11-12T22:06:36;2.52;;;0.40;;
67712;SDS011;54503;55.784;49.138;2022-11-12T22:11:41;3.30;;;0.60;;
67712;SDS011;54503;55.784;49.138;2022-11-12T22:16:47;3.50;;;0.57;;
67712;SDS011;54503;55.784;49.138;2022-11-12T22:21:52;4.80;;;0.67;;
67712;SDS011;54503;55.784;49.138;2022-11-12T22:27:11;3.45;;;0.57;;
67712;SDS011;54503;55.784;49.138;2022-11-12T22:32:16;2.47;;;0.70;;
67712;SDS011;54503;55.784;49.138;2022-11-12T22:37:22;3.93;;;0.50;;
67712;SDS011;54503;55.784;49.138;2022-11-12T22:42:27;3.90;;;0.53;;
67712;SDS011;54503;55.784;49.138;2022-11-12T22:47:31;2.10;;;0.47;;
67712;SDS011;54503;55.784;49.138;2022-11-12T22:52:46;5.58;;;0.90;;
67712;SDS011;54503;55.784;49.138;2022-11-12T22:58:05;2.77;;;0.50;;
67712;SDS011;54503;55.784;49.138;2022-11-12T23:03:10;1.47;;;0.30;;
67712;SDS011;54503;55.784;49.138;2022-11-12T23:08:15;0.47;;;0.17;;
67712;SDS011;54503;55.784;49.138;2022-11-12T23:13:20;1.03;;;0.20;;
67712;SDS011;54503;55.784;49.138;2022-11-12T23:18:26;1.67;;;0.20;;
67712;SDS011;54503;55.784;49.138;2022-11-12T23:23:45;0.20;;;0.10;;
67712;SDS011;54503;55.784;49.138;2022-11-12T23:28:51;1.60;;;0.10;;
67712;SDS011;54503;55.784;49.138;2022-11-12T23:33:57;0.30;;;0.08;;
67712;SDS011;54503;55.784;49.138;2022-11-12T23:39:02;0.37;;;0.03;;
67712;SDS011;54503;55.784;49.138;2022-11-12T23:44:07;1.15;;;0.15;;
67712;SDS011;54503;55.784;49.138;2022-11-12T23:49:26;1.02;;;0.10;;
67712;SDS011;54503;55.784;49.138;2022-11-12T23:54:32;0.33;;;0.10;;
67712;SDS011;54503;55.784;49.138;2022-11-12T23:59:37;0.20;;;0.05;;
